createdAt,value
2023-03-01T00:01:06.252Z,53.60
2023-03-01T00:03:33.220Z,53.71
2023-03-01T00:05:59.891Z,53.77
2023-03-01T00:08:26.916Z,54.26
2023-03-01T00:11:07.138Z,54.31
2023-03-01T00:13:34.165Z,54.13
2023-03-01T00:16:08.289Z,54.43
2023-03-01T00:18:37.168Z,54.43
2023-03-01T00:21:04.136Z,55.18
2023-03-01T00:23:34.969Z,55.03
2023-03-01T00:26:01.822Z,54.94
2023-03-01T00:28:28.449Z,55.68
2023-03-01T00:30:54.958Z,55.21
2023-03-01T00:33:22.523Z,54.94
2023-03-01T00:35:48.970Z,54.57
2023-03-01T00:38:17.782Z,54.51
2023-03-01T00:40:44.302Z,55.08
2023-03-01T00:43:13.898Z,54.58
2023-03-01T00:45:40.283Z,54.56
2023-03-01T00:48:06.677Z,54.49
2023-03-01T00:50:33.200Z,54.55
2023-03-01T00:52:59.660Z,54.93
2023-03-01T00:55:26.551Z,55.05
2023-03-01T00:57:53.375Z,54.73
2023-03-01T01:00:21.037Z,55.25
2023-03-01T01:02:47.864Z,54.73
2023-03-01T01:05:14.417Z,55.18
2023-03-01T01:07:40.923Z,54.47
2023-03-01T01:10:08.189Z,54.95
2023-03-01T01:12:34.762Z,55.24
2023-03-01T01:15:03.521Z,56.09
2023-03-01T01:17:30.248Z,56.68
2023-03-01T01:19:59.564Z,56.58
2023-03-01T01:22:29.165Z,56.09
2023-03-01T01:24:55.725Z,55.76
2023-03-01T01:27:22.319Z,55.70
2023-03-01T01:29:48.872Z,55.97
2023-03-01T01:32:15.423Z,56.20
2023-03-01T01:34:52.372Z,56.31
2023-03-01T01:37:22.101Z,56.03
2023-03-01T01:39:50.141Z,56.46
2023-03-01T01:42:19.505Z,56.21
2023-03-01T01:44:48.988Z,56.61
2023-03-01T01:47:25.795Z,56.75
2023-03-01T01:49:55.904Z,56.48
2023-03-01T01:52:41.762Z,56.38
2023-03-01T01:55:21.916Z,56.42
2023-03-01T01:57:52.528Z,56.27
2023-03-01T02:00:24.984Z,56.42
2023-03-01T02:02:57.656Z,56.51
2023-03-01T02:05:44.202Z,56.53
2023-03-01T02:08:13.387Z,56.42
2023-03-01T02:10:41.281Z,57.02
2023-03-01T02:13:08.098Z,56.84
2023-03-01T02:15:38.707Z,56.83
2023-03-01T02:18:06.692Z,57.27
2023-03-01T02:20:57.634Z,57.36
2023-03-01T02:23:24.426Z,57.29
2023-03-01T02:25:57.154Z,57.16
2023-03-01T02:28:31.755Z,56.69
2023-03-01T02:31:17.358Z,57.63
2023-03-01T02:33:45.055Z,57.56
2023-03-01T02:36:31.433Z,57.45
2023-03-01T02:39:00.905Z,57.31
2023-03-01T02:41:31.850Z,57.35
2023-03-01T02:43:58.621Z,57.05
2023-03-01T02:46:26.791Z,57.14
2023-03-01T02:48:58.348Z,57.47
2023-03-01T02:51:33.770Z,57.55
2023-03-01T02:54:18.767Z,57.47
2023-03-01T02:56:49.164Z,58.17
2023-03-01T02:59:19.025Z,57.97
2023-03-01T03:01:47.132Z,57.73
2023-03-01T03:04:17.853Z,57.82
2023-03-01T03:06:47.312Z,57.71
2023-03-01T03:09:20.247Z,57.73
2023-03-01T03:11:47.377Z,58.32
2023-03-01T03:14:16.386Z,57.83
2023-03-01T03:16:45.349Z,58.00
2023-03-01T03:19:12.536Z,58.30
2023-03-01T03:21:39.184Z,57.47
2023-03-01T03:24:06.089Z,58.27
2023-03-01T03:26:33.569Z,58.03
2023-03-01T03:29:00.106Z,58.24
2023-03-01T03:31:27.310Z,58.10
2023-03-01T03:33:53.991Z,58.25
2023-03-01T03:36:23.793Z,59.15
2023-03-01T03:41:46.439Z,60.38
2023-03-01T03:44:15.904Z,61.17
2023-03-01T03:46:42.297Z,61.76
2023-03-01T03:49:08.733Z,61.19
2023-03-01T03:51:35.102Z,60.42
2023-03-01T03:54:01.594Z,60.36
2023-03-01T03:56:28.882Z,61.31
2023-03-01T03:58:55.513Z,61.90
2023-03-01T04:01:21.936Z,62.46
2023-03-01T04:03:48.397Z,62.73
2023-03-01T04:06:15.159Z,61.90
2023-03-01T04:08:42.049Z,61.49
2023-03-01T04:11:26.906Z,60.85
2023-03-01T04:14:00.170Z,60.08
2023-03-01T04:16:26.810Z,59.94
2023-03-01T04:18:54.462Z,59.61
2023-03-01T04:21:21.221Z,59.99
2023-03-01T04:23:47.668Z,59.60
2023-03-01T04:26:14.048Z,59.80
2023-03-01T04:28:43.999Z,60.97
2023-03-01T04:31:18.274Z,61.51
2023-03-01T04:33:50.201Z,61.40
2023-03-01T04:36:19.244Z,60.50
2023-03-01T04:38:49.455Z,60.84
2023-03-01T04:41:18.339Z,60.84
2023-03-01T04:43:45.620Z,61.37
2023-03-01T04:46:17.755Z,61.95
2023-03-01T04:48:45.708Z,61.99
2023-03-01T04:51:16.540Z,62.01
2023-03-01T04:53:43.810Z,62.84
2023-03-01T04:56:10.406Z,62.95
2023-03-01T04:58:37.183Z,63.23
2023-03-01T05:01:16.425Z,63.81
2023-03-01T05:03:44.677Z,64.55
2023-03-01T05:06:11.935Z,65.32
2023-03-01T05:08:43.441Z,65.36
2023-03-01T05:11:11.342Z,65.01
2023-03-01T05:13:39.113Z,65.19
2023-03-01T05:16:07.404Z,64.42
2023-03-01T05:18:35.772Z,64.23
2023-03-01T05:21:06.990Z,63.74
2023-03-01T05:23:34.704Z,63.49
2023-03-01T05:26:03.386Z,63.00
2023-03-01T05:28:30.473Z,63.08
2023-03-01T05:30:58.422Z,62.92
2023-03-01T05:33:29.093Z,62.69
2023-03-01T05:35:55.755Z,62.43
2023-03-01T05:38:23.423Z,63.01
2023-03-01T05:40:50.187Z,63.52
2023-03-01T05:43:18.969Z,63.47
2023-03-01T05:45:45.578Z,63.06
2023-03-01T05:48:13.638Z,62.53
2023-03-01T05:50:43.343Z,62.74
2023-03-01T05:53:15.676Z,62.32
2023-03-01T05:55:46.072Z,61.74
2023-03-01T05:58:17.849Z,61.16
2023-03-01T06:00:45.776Z,61.15
2023-03-01T06:03:14.030Z,60.99
2023-03-01T06:05:41.686Z,60.70
2023-03-01T06:08:08.204Z,60.95
2023-03-01T06:10:34.533Z,61.17
2023-03-01T06:13:00.914Z,60.98
2023-03-01T06:15:27.754Z,60.34
2023-03-01T06:17:59.964Z,61.40
2023-03-01T06:20:28.403Z,61.69
2023-03-01T06:22:54.889Z,61.62
2023-03-01T06:25:24.326Z,61.03
2023-03-01T06:27:50.765Z,61.24
2023-03-01T06:30:19.820Z,60.72
2023-03-01T06:32:46.344Z,61.64
2023-03-01T06:35:14.877Z,61.16
2023-03-01T06:37:42.132Z,60.76
2023-03-01T06:40:12.316Z,61.02
2023-03-01T06:42:40.538Z,61.20
2023-03-01T06:45:08.270Z,61.45
2023-03-01T06:47:34.800Z,61.51
2023-03-01T06:50:02.042Z,61.71
2023-03-01T06:52:28.380Z,61.23
2023-03-01T06:54:54.749Z,61.33
2023-03-01T06:57:21.094Z,61.34
2023-03-01T06:59:48.291Z,61.54
2023-03-01T07:02:15.955Z,61.68
2023-03-01T07:04:43.247Z,61.20
2023-03-01T07:07:09.622Z,61.22
2023-03-01T07:09:36.061Z,61.01
2023-03-01T07:12:02.742Z,61.10
2023-03-01T07:14:29.344Z,61.25
2023-03-01T07:16:56.009Z,61.25
2023-03-01T07:19:23.641Z,60.67
2023-03-01T07:21:50.221Z,60.53
2023-03-01T07:24:16.642Z,61.21
2023-03-01T07:26:42.972Z,60.56
2023-03-01T07:29:11.345Z,61.12
2023-03-01T07:31:37.833Z,60.74
2023-03-01T07:34:04.321Z,61.48
2023-03-01T07:36:31.017Z,61.39
2023-03-01T07:38:58.761Z,60.91
2023-03-01T07:41:25.239Z,60.82
2023-03-01T07:43:51.615Z,61.11
2023-03-01T07:46:19.948Z,61.32
2023-03-01T07:48:46.378Z,61.20
2023-03-01T07:51:12.770Z,61.23
2023-03-01T07:53:39.160Z,61.19
2023-03-01T07:56:08.181Z,61.12
2023-03-01T07:58:42.613Z,61.20
2023-03-01T08:01:12.741Z,61.18
2023-03-01T08:03:39.596Z,61.11
2023-03-01T08:06:08.050Z,60.59
2023-03-01T08:08:35.094Z,60.43
2023-03-01T08:11:03.333Z,60.23
2023-03-01T08:13:30.357Z,60.32
2023-03-01T08:16:21.883Z,60.37
2023-03-01T08:18:48.312Z,60.43
2023-03-01T08:21:18.645Z,60.18
2023-03-01T08:23:45.659Z,60.26
2023-03-01T08:26:20.092Z,60.12
2023-03-01T08:28:47.420Z,59.98
2023-03-01T08:31:20.299Z,60.31
2023-03-01T08:33:57.449Z,59.39
2023-03-01T08:36:30.039Z,59.40
2023-03-01T08:38:57.140Z,59.06
2023-03-01T08:41:24.103Z,59.34
2023-03-01T08:43:50.811Z,59.55
2023-03-01T08:46:17.768Z,59.16
2023-03-01T08:48:44.361Z,58.43
2023-03-01T08:51:17.255Z,58.71
2023-03-01T08:53:44.897Z,58.68
2023-03-01T08:56:11.963Z,58.33
2023-03-01T08:58:38.894Z,58.33
2023-03-01T09:01:09.981Z,58.10
2023-03-01T09:03:36.877Z,58.46
2023-03-01T09:06:05.450Z,57.63
2023-03-01T09:08:35.597Z,57.74
2023-03-01T09:11:06.260Z,57.31
2023-03-01T09:13:33.332Z,56.45
2023-03-01T09:16:02.132Z,56.17
2023-03-01T09:18:29.232Z,55.98
2023-03-01T09:21:09.655Z,56.27
2023-03-01T09:23:39.478Z,56.04
2023-03-01T09:26:12.727Z,55.33
2023-03-01T09:28:45.378Z,55.76
2023-03-01T09:31:16.170Z,55.42
2023-03-01T09:33:43.542Z,54.30
2023-03-01T09:36:15.879Z,54.80
2023-03-01T09:38:42.577Z,54.28
2023-03-01T09:41:39.553Z,53.73
2023-03-01T09:44:17.124Z,53.49
2023-03-01T09:46:46.406Z,54.17
2023-03-01T09:49:20.598Z,52.94
2023-03-01T09:51:57.004Z,52.22
2023-03-01T09:54:23.485Z,52.03
2023-03-01T09:57:14.317Z,51.37
2023-03-01T10:00:10.534Z,51.26
2023-03-01T10:02:48.564Z,51.63
2023-03-01T10:05:22.347Z,50.80
2023-03-01T10:08:37.187Z,50.08
2023-03-01T10:11:05.881Z,50.29
2023-03-01T10:13:45.924Z,49.96
2023-03-01T10:16:26.905Z,50.12
2023-03-01T10:18:59.021Z,50.46
2023-03-01T10:21:28.023Z,50.25
2023-03-01T10:23:54.881Z,48.55
2023-03-01T10:26:46.004Z,49.10
2023-03-01T10:29:14.135Z,49.59
2023-03-01T10:31:45.416Z,49.26
2023-03-01T10:34:18.438Z,48.26
2023-03-01T10:36:48.831Z,47.61
2023-03-01T10:39:21.166Z,47.37
2023-03-01T10:41:59.723Z,45.61
2023-03-01T10:44:37.024Z,45.39
2023-03-01T10:47:03.729Z,41.71
2023-03-01T10:49:30.152Z,37.15
2023-03-01T10:51:56.759Z,33.50
2023-03-01T10:54:32.006Z,31.86
2023-03-01T10:57:03.701Z,31.67
2023-03-01T10:59:36.379Z,30.63
2023-03-01T11:02:30.928Z,30.17
2023-03-01T11:05:18.468Z,29.25
2023-03-01T11:07:49.078Z,27.64
2023-03-01T11:10:20.662Z,29.22
2023-03-01T11:12:47.069Z,28.60
2023-03-01T11:15:28.789Z,26.79
2023-03-01T11:18:05.952Z,27.79
2023-03-01T11:20:40.632Z,27.84
2023-03-01T11:23:13.317Z,28.15
2023-03-01T11:26:03.838Z,28.08
2023-03-01T11:28:31.372Z,27.07
2023-03-01T11:31:13.060Z,27.07
2023-03-01T11:33:51.438Z,27.25
2023-03-01T11:36:38.172Z,27.67
2023-03-01T11:39:21.400Z,28.18
2023-03-01T11:41:53.433Z,28.91
2023-03-01T11:44:29.486Z,27.20
2023-03-01T11:47:04.990Z,27.30
2023-03-01T11:49:41.595Z,27.59
2023-03-01T11:52:16.944Z,28.42
2023-03-01T11:55:21.865Z,27.21
2023-03-01T11:58:15.149Z,26.75
2023-03-01T12:01:05.231Z,27.76
2023-03-01T12:04:03.923Z,26.99
2023-03-01T12:06:55.595Z,27.87
2023-03-01T12:09:44.291Z,28.79
2023-03-01T12:12:13.608Z,26.52
2023-03-01T12:14:58.167Z,28.25
2023-03-01T12:17:48.754Z,28.54
2023-03-01T12:20:36.953Z,27.47
2023-03-01T12:23:20.457Z,27.65
2023-03-01T12:26:13.332Z,27.67
2023-03-01T12:28:40.412Z,27.74
2023-03-01T12:31:51.604Z,28.48
2023-03-01T12:34:43.138Z,28.36
2023-03-01T12:37:48.363Z,29.43
2023-03-01T12:40:14.699Z,31.10
2023-03-01T12:43:03.654Z,29.73
2023-03-01T12:45:55.492Z,29.25
2023-03-01T12:48:24.808Z,28.25
2023-03-01T12:50:59.011Z,29.04
2023-03-01T12:53:40.586Z,28.28
2023-03-01T12:56:12.763Z,29.47
2023-03-01T12:58:56.285Z,28.68
2023-03-01T13:01:53.326Z,29.37
2023-03-01T13:04:25.852Z,30.24
2023-03-01T13:07:18.594Z,28.50
2023-03-01T13:09:50.966Z,27.94
2023-03-01T13:12:43.255Z,26.77
2023-03-01T13:15:24.929Z,28.21
2023-03-01T13:17:53.937Z,28.73
2023-03-01T13:20:23.972Z,29.14
2023-03-01T13:23:05.154Z,28.72
2023-03-01T13:25:37.670Z,28.79
2023-03-01T13:28:50.209Z,26.63
2023-03-01T13:31:16.538Z,27.89
2023-03-01T13:33:50.541Z,28.71
2023-03-01T13:36:29.669Z,27.58
2023-03-01T13:38:56.391Z,28.80
2023-03-01T13:41:47.156Z,27.62
2023-03-01T13:44:42.011Z,28.25
2023-03-01T13:47:16.175Z,27.80
2023-03-01T13:49:54.611Z,27.33
2023-03-01T13:52:37.465Z,27.69
2023-03-01T13:55:26.692Z,29.49
2023-03-01T13:58:14.424Z,28.74
2023-03-01T14:00:43.457Z,29.06
2023-03-01T14:03:20.895Z,31.12
2023-03-01T14:06:20.922Z,32.35
2023-03-01T14:08:50.545Z,33.25
2023-03-01T14:11:54.174Z,33.19
2023-03-01T14:14:29.205Z,33.07
2023-03-01T14:17:16.794Z,31.36
2023-03-01T14:19:46.351Z,30.05
2023-03-01T14:22:28.151Z,31.20
2023-03-01T14:25:03.624Z,30.02
2023-03-01T14:27:40.298Z,30.25
2023-03-01T14:30:22.954Z,30.64
2023-03-01T14:32:57.863Z,30.28
2023-03-01T14:35:27.750Z,30.66
2023-03-01T14:37:56.758Z,30.21
2023-03-01T14:40:37.440Z,31.17
2023-03-01T14:43:12.163Z,31.94
2023-03-01T14:45:38.836Z,32.12
2023-03-01T14:48:07.985Z,32.62
2023-03-01T14:50:44.132Z,32.46
2023-03-01T14:53:22.894Z,33.18
2023-03-01T14:55:53.756Z,31.88
2023-03-01T14:58:25.855Z,31.65
2023-03-01T15:00:57.469Z,31.53
2023-03-01T15:03:47.274Z,31.96
2023-03-01T15:06:18.155Z,32.75
2023-03-01T15:08:53.443Z,33.66
2023-03-01T15:11:31.109Z,33.52
2023-03-01T15:13:58.700Z,33.10
2023-03-01T15:16:29.410Z,32.80
2023-03-01T15:18:59.973Z,32.99
2023-03-01T15:21:31.651Z,32.94
2023-03-01T15:24:25.949Z,33.28
2023-03-01T15:26:58.299Z,33.73
2023-03-01T15:29:34.381Z,33.79
2023-03-01T15:32:07.161Z,32.46
2023-03-01T15:34:37.759Z,32.77
2023-03-01T15:37:06.532Z,34.11
2023-03-01T15:39:38.360Z,34.46
2023-03-01T15:42:08.797Z,34.03
2023-03-01T15:44:43.420Z,33.92
2023-03-01T15:47:31.658Z,33.63
2023-03-01T15:50:00.618Z,33.59
2023-03-01T15:52:42.359Z,34.18
2023-03-01T15:55:29.639Z,33.44
2023-03-01T15:58:23.386Z,34.05
2023-03-01T16:01:01.560Z,34.02
2023-03-01T16:03:29.101Z,33.65
2023-03-01T16:05:55.550Z,34.13
2023-03-01T16:08:21.918Z,34.52
2023-03-01T16:10:50.813Z,34.32
2023-03-01T16:13:18.564Z,34.81
2023-03-01T16:15:44.967Z,34.15
2023-03-01T16:18:12.512Z,34.58
2023-03-01T16:20:39.137Z,34.99
2023-03-01T16:23:08.800Z,34.42
2023-03-01T16:25:38.748Z,34.66
2023-03-01T16:28:11.573Z,35.14
2023-03-01T16:30:40.481Z,34.26
2023-03-01T16:33:24.001Z,35.04
2023-03-01T16:35:51.953Z,34.91
2023-03-01T16:38:18.576Z,34.25
2023-03-01T16:40:49.478Z,34.41
2023-03-01T16:43:16.140Z,35.03
2023-03-01T16:45:45.440Z,35.37
2023-03-01T16:48:12.794Z,36.25
2023-03-01T16:50:40.038Z,36.99
2023-03-01T16:53:06.654Z,36.14
2023-03-01T16:55:33.912Z,36.44
2023-03-01T16:58:01.623Z,37.09
2023-03-01T17:00:28.806Z,36.83
2023-03-01T17:02:55.540Z,36.82
2023-03-01T17:05:24.624Z,36.53
2023-03-01T17:07:54.519Z,36.30
2023-03-01T17:10:21.030Z,37.01
2023-03-01T17:12:50.926Z,36.73
2023-03-01T17:15:17.464Z,37.62
2023-03-01T17:17:44.549Z,37.68
2023-03-01T17:20:11.431Z,37.52
2023-03-01T17:22:38.041Z,37.39
2023-03-01T17:25:05.290Z,37.32
2023-03-01T17:27:35.424Z,37.90
2023-03-01T17:30:02.038Z,37.39
2023-03-01T17:32:28.527Z,38.86
2023-03-01T17:34:55.133Z,38.37
2023-03-01T17:37:21.568Z,38.68
2023-03-01T17:39:48.002Z,38.68
2023-03-01T17:42:14.463Z,38.92
2023-03-01T17:44:42.903Z,39.00
2023-03-01T17:47:10.917Z,38.68
2023-03-01T17:49:55.751Z,38.89
2023-03-01T17:52:23.700Z,39.75
2023-03-01T17:54:50.632Z,40.04
2023-03-01T17:57:17.316Z,39.20
2023-03-01T17:59:43.738Z,39.15
2023-03-01T18:02:12.867Z,39.46
2023-03-01T18:04:39.579Z,39.42
2023-03-01T18:07:06.125Z,39.63
2023-03-01T18:09:32.639Z,39.52
2023-03-01T18:11:59.025Z,39.47
2023-03-01T18:14:29.595Z,39.80
2023-03-01T18:16:57.103Z,39.99
2023-03-01T18:19:23.608Z,40.63
2023-03-01T18:21:50.010Z,40.58
2023-03-01T18:24:16.433Z,40.07
2023-03-01T18:26:42.918Z,40.45
2023-03-01T18:29:10.503Z,39.97
2023-03-01T18:31:37.052Z,40.62
2023-03-01T18:34:03.824Z,41.02
2023-03-01T18:36:32.816Z,41.31
2023-03-01T18:39:01.663Z,41.58
2023-03-01T18:41:29.550Z,41.53
2023-03-01T18:43:57.750Z,42.27
2023-03-01T18:46:24.671Z,42.28
2023-03-01T18:48:53.261Z,42.97
2023-03-01T18:51:22.806Z,42.74
2023-03-01T18:53:49.391Z,42.15
2023-03-01T18:56:15.875Z,42.11
2023-03-01T18:58:43.066Z,42.04
2023-03-01T19:01:18.362Z,41.64
2023-03-01T19:03:47.157Z,41.67
2023-03-01T19:06:14.957Z,41.41
2023-03-01T19:08:42.263Z,41.55
2023-03-01T19:11:09.566Z,41.59
2023-03-01T19:13:38.420Z,41.52
2023-03-01T19:16:20.590Z,42.13
2023-03-01T19:18:50.467Z,42.19
2023-03-01T19:25:11.219Z,42.73
2023-03-01T19:27:38.917Z,42.29
2023-03-01T19:30:46.217Z,42.39
2023-03-01T19:33:12.873Z,42.74
2023-03-01T19:35:43.515Z,43.00
2023-03-01T19:38:09.957Z,43.11
2023-03-01T19:40:36.766Z,43.38
2023-03-01T19:43:04.299Z,43.52
2023-03-01T19:45:33.728Z,42.85
2023-03-01T19:48:00.435Z,43.22
2023-03-01T19:50:26.939Z,43.52
2023-03-01T19:52:56.101Z,43.82
2023-03-01T19:55:22.502Z,44.17
2023-03-01T19:57:49.161Z,44.18
2023-03-01T20:00:17.112Z,44.05
2023-03-01T20:02:43.757Z,44.12
2023-03-01T20:05:10.267Z,43.75
2023-03-01T20:07:39.539Z,43.79
2023-03-01T20:10:06.967Z,44.58
2023-03-01T20:12:36.347Z,44.85
2023-03-01T20:15:02.908Z,44.07
2023-03-01T20:17:29.420Z,43.73
2023-03-01T20:19:55.845Z,44.03
2023-03-01T20:22:22.333Z,44.05
2023-03-01T20:24:48.997Z,44.03
2023-03-01T20:27:15.384Z,43.91
2023-03-01T20:29:41.858Z,44.22
2023-03-01T20:32:10.793Z,44.83
2023-03-01T20:34:37.753Z,43.69
2023-03-01T20:37:04.238Z,44.73
2023-03-01T20:39:30.647Z,44.42
2023-03-01T20:41:57.080Z,44.45
2023-03-01T20:44:47.464Z,44.46
2023-03-01T20:47:14.784Z,44.35
2023-03-01T20:49:41.366Z,44.87
2023-03-01T20:52:07.837Z,44.19
2023-03-01T20:54:36.809Z,44.01
2023-03-01T20:57:03.292Z,44.15
2023-03-01T20:59:29.708Z,44.16
2023-03-01T21:01:56.067Z,44.44
2023-03-01T21:04:22.609Z,44.55
2023-03-01T21:06:52.207Z,44.29
2023-03-01T21:09:18.774Z,44.72
2023-03-01T21:11:45.190Z,45.16
2023-03-01T21:14:14.824Z,45.47
2023-03-01T21:16:45.600Z,45.42
2023-03-01T21:19:12.076Z,45.79
2023-03-01T21:21:38.551Z,45.82
2023-03-01T21:24:05.598Z,45.23
2023-03-01T21:26:32.362Z,45.49
2023-03-01T21:29:02.747Z,45.37
2023-03-01T21:31:33.781Z,46.17
2023-03-01T21:34:04.302Z,46.33
2023-03-01T21:36:34.378Z,46.08
2023-03-01T21:39:04.024Z,45.93
2023-03-01T21:41:32.884Z,46.49
2023-03-01T21:44:02.844Z,46.35
2023-03-01T21:46:31.916Z,46.21
2023-03-01T21:48:58.808Z,45.77
2023-03-01T21:51:27.482Z,45.94
2023-03-01T21:54:00.103Z,46.21
2023-03-01T21:56:31.869Z,46.74
2023-03-01T21:58:58.818Z,47.26
2023-03-01T22:01:29.431Z,46.71
2023-03-01T22:04:00.359Z,46.50
2023-03-01T22:06:34.091Z,46.61
2023-03-01T22:09:07.527Z,46.87
2023-03-01T22:11:37.361Z,46.67
2023-03-01T22:14:04.730Z,46.94
2023-03-01T22:16:34.997Z,47.22
2023-03-01T22:19:02.118Z,47.08
2023-03-01T22:21:28.974Z,46.60
2023-03-01T22:23:56.026Z,47.26
2023-03-01T22:26:28.304Z,47.63
2023-03-01T22:28:56.706Z,47.23
2023-03-01T22:31:23.815Z,46.63
2023-03-01T22:33:51.974Z,47.70
2023-03-01T22:36:18.612Z,47.74
2023-03-01T22:38:48.316Z,47.72
2023-03-01T22:41:17.756Z,48.55
2023-03-01T22:43:44.189Z,47.69
2023-03-01T22:46:13.522Z,48.05
2023-03-01T22:48:40.792Z,47.91
2023-03-01T22:51:08.414Z,48.11
2023-03-01T22:53:34.987Z,48.14
2023-03-01T22:56:11.427Z,48.07
2023-03-01T22:58:37.912Z,47.89
2023-03-01T23:01:21.715Z,48.25
2023-03-01T23:03:59.804Z,48.59
2023-03-01T23:06:26.397Z,48.61
2023-03-01T23:08:59.646Z,49.82
2023-03-01T23:11:27.539Z,49.02
2023-03-01T23:13:54.994Z,49.60
2023-03-01T23:16:26.012Z,49.18
2023-03-01T23:18:58.989Z,49.58
2023-03-01T23:21:26.142Z,49.56
2023-03-01T23:23:54.398Z,48.81
2023-03-01T23:26:22.183Z,49.27
2023-03-01T23:28:50.884Z,49.26
2023-03-01T23:31:18.019Z,49.69
2023-03-01T23:33:45.905Z,49.50
2023-03-01T23:36:30.986Z,49.70
2023-03-01T23:39:04.020Z,49.64
2023-03-01T23:41:32.900Z,49.68
2023-03-01T23:44:01.564Z,49.37
2023-03-01T23:46:31.628Z,49.63
2023-03-01T23:48:58.973Z,49.96
2023-03-01T23:51:28.486Z,50.04
2023-03-01T23:53:59.071Z,50.42
2023-03-01T23:56:29.823Z,49.97
2023-03-01T23:59:01.202Z,50.35
